Time;durP1;ratioP1;P1;durP2;ratioP2;P2;SDS_P1;SDS_P2;PMS_P1;PMS_P2;Temp;Humidity;BMP_temperature;BMP_pressure;BME280_temperature;BME280_humidity;BME280_pressure;Samples;Min_cycle;Max_cycle;Signal;HPM_P1;HPM_P2
2022/03/08 00:00:24;;;;;;;15.33;10.30;;;;;;;-0.90;55.98;151141.38;5061347;28;20449;-77
2022/03/08 00:03:00;;;;;;;20.93;10.90;;;;;;;-0.85;55.53;151154.19;5061807;28;20450;-77
2022/03/08 00:05:39;;;;;;;15.50;10.17;;;;;;;-0.84;55.94;151156.72;5062890;28;20455;-77
2022/03/08 00:08:15;;;;;;;14.77;10.93;;;;;;;-0.83;55.26;151160.59;5046867;28;20445;-77
2022/03/08 00:10:50;;;;;;;15.97;10.83;;;;;;;-0.97;56.49;151123.41;5062357;28;20442;-77
2022/03/08 00:13:26;;;;;;;16.97;10.20;;;;;;;-0.99;56.30;151118.28;5066204;28;20809;-77
2022/03/08 00:16:02;;;;;;;19.63;11.17;;;;;;;-1.00;56.27;151115.69;5043597;28;20445;-77
2022/03/08 00:18:38;;;;;;;17.13;10.10;;;;;;;-1.03;56.59;151108.06;5062778;28;20506;-77
2022/03/08 00:21:15;;;;;;;15.00;10.30;;;;;;;-1.04;56.88;151105.47;5051868;28;20462;-77
2022/03/08 00:23:50;;;;;;;14.90;11.50;;;;;;;-1.02;56.34;151111.88;5045917;28;20800;-76
2022/03/08 00:26:26;;;;;;;16.03;10.67;;;;;;;-1.02;56.57;151111.88;5066072;28;20457;-77
2022/03/08 00:29:01;;;;;;;15.00;11.40;;;;;;;-0.98;56.56;151120.88;5066360;28;20429;-77
2022/03/08 00:31:37;;;;;;;15.40;10.83;;;;;;;-0.99;56.03;151119.56;5051797;28;20450;-76
2022/03/08 00:34:13;;;;;;;16.97;10.87;;;;;;;-1.02;55.93;151111.88;5067980;28;20449;-76
2022/03/08 00:36:49;;;;;;;16.93;11.33;;;;;;;-0.98;56.42;151120.88;5066315;28;20507;-77
2022/03/08 00:39:25;;;;;;;16.13;11.37;;;;;;;-0.98;56.49;151120.88;5051263;28;20473;-77
2022/03/08 00:42:01;;;;;;;16.63;11.60;;;;;;;-0.98;55.89;151122.09;5066416;28;20444;-76
2022/03/08 00:44:36;;;;;;;15.23;11.00;;;;;;;-0.98;56.13;151120.88;5046712;28;20450;-77
2022/03/08 00:47:13;;;;;;;17.00;11.10;;;;;;;-1.00;56.38;151117.00;5069111;28;20441;-76
2022/03/08 00:49:49;;;;;;;15.33;11.63;;;;;;;-1.00;56.36;151115.69;5046158;28;21306;-77
2022/03/08 00:52:26;;;;;;;14.13;10.17;;;;;;;-0.98;56.04;151120.88;5046717;28;20457;-76
2022/03/08 00:55:04;;;;;;;16.53;10.87;;;;;;;-1.02;55.50;151111.88;5065862;28;20533;-77
2022/03/08 00:57:40;;;;;;;18.07;11.70;;;;;;;-0.99;55.64;151118.28;5048528;28;22179;-76
2022/03/08 01:00:18;;;;;;;18.40;11.17;;;;;;;-0.97;56.44;151123.41;5063025;28;20459;-77
2022/03/08 01:02:53;;;;;;;15.67;11.40;;;;;;;-0.97;55.62;151123.41;5047037;28;20546;-76
2022/03/08 01:05:30;;;;;;;17.53;10.73;;;;;;;-1.00;55.84;151115.69;5050649;28;20447;-77
2022/03/08 01:08:07;;;;;;;18.77;11.90;;;;;;;-0.98;55.42;151120.88;5051392;28;20434;-76
2022/03/08 01:10:43;;;;;;;15.90;10.13;;;;;;;-0.99;55.73;151118.28;5052542;28;20455;-77
2022/03/08 01:13:19;;;;;;;16.17;10.80;;;;;;;-1.04;55.09;151105.47;5059566;28;20438;-77
2022/03/08 01:15:55;;;;;;;15.47;10.63;;;;;;;-1.07;55.24;151097.78;5051734;28;20877;-77
2022/03/08 01:18:31;;;;;;;17.67;10.00;;;;;;;-1.07;55.27;151097.78;5050344;28;20467;-76
2022/03/08 01:21:06;;;;;;;17.30;11.33;;;;;;;-1.11;55.20;151088.78;5050800;28;20454;-77
2022/03/08 01:23:43;;;;;;;15.53;10.50;;;;;;;-1.03;54.90;151108.06;5064692;28;20824;-76
2022/03/08 01:26:19;;;;;;;14.73;9.70;;;;;;;-1.04;55.09;151105.47;5073368;28;20444;-77
2022/03/08 01:28:55;;;;;;;13.83;9.40;;;;;;;-1.04;54.77;151105.47;5065099;28;20795;-76
2022/03/08 01:31:31;;;;;;;14.40;9.93;;;;;;;-1.04;54.46;151105.47;5050614;28;20444;-76
2022/03/08 01:34:07;;;;;;;17.33;9.83;;;;;;;-1.04;54.57;151105.47;5045112;28;20501;-77
2022/03/08 01:36:43;;;;;;;15.50;9.63;;;;;;;-0.95;53.82;151128.50;5050881;28;20796;-77
2022/03/08 01:39:19;;;;;;;14.17;9.60;;;;;;;-0.98;54.61;151120.88;5050406;28;20859;-76
2022/03/08 01:41:55;;;;;;;12.80;8.20;;;;;;;-1.02;54.69;151111.88;5043246;28;20461;-77
2022/03/08 01:44:31;;;;;;;12.27;8.53;;;;;;;-1.09;54.50;151093.94;5049637;28;20437;-78
2022/03/08 01:47:07;;;;;;;15.57;9.90;;;;;;;-1.11;55.16;151088.78;5067777;28;20799;-77
2022/03/08 01:49:43;;;;;;;16.57;9.30;;;;;;;-1.13;54.80;151082.38;5046390;28;20470;-77
2022/03/08 01:52:22;;;;;;;16.90;10.90;;;;;;;-1.14;55.30;151079.84;5046460;28;20888;-77
2022/03/08 01:54:59;;;;;;;16.60;9.63;;;;;;;-1.11;54.70;151087.53;5063751;28;20456;-77
2022/03/08 01:57:35;;;;;;;15.00;9.10;;;;;;;-1.18;54.85;151069.56;5066124;28;20448;-77
2022/03/08 02:00:13;;;;;;;16.73;9.63;;;;;;;-1.20;54.62;151065.72;5052754;28;20862;-77
2022/03/08 02:02:49;;;;;;;12.03;9.60;;;;;;;-1.19;54.75;151067.03;5046482;28;20474;-77
2022/03/08 02:05:26;;;;;;;16.00;10.40;;;;;;;-1.22;55.10;151061.88;5065899;28;20436;-77
2022/03/08 02:08:01;;;;;;;12.07;9.27;;;;;;;-1.16;54.64;151074.66;5051513;28;20476;-77
2022/03/08 02:10:38;;;;;;;12.07;9.10;;;;;;;-1.19;54.52;151068.28;5046445;28;20469;-77
2022/03/08 02:13:13;;;;;;;13.50;8.90;;;;;;;-1.23;54.69;151059.34;5066947;28;20449;-77
2022/03/08 02:15:50;;;;;;;17.63;9.63;;;;;;;-1.24;55.21;151056.75;5066409;28;20445;-77
2022/03/08 02:18:25;;;;;;;13.03;8.63;;;;;;;-1.16;54.87;151074.66;5077217;28;20471;-77
2022/03/08 02:21:05;;;;;;;14.00;8.97;;;;;;;-1.17;55.15;151072.13;5055625;28;20455;-77
2022/03/08 02:23:40;;;;;;;15.00;9.00;;;;;;;-1.22;53.96;151060.63;5064679;28;20462;-76
2022/03/08 02:26:16;;;;;;;15.63;9.70;;;;;;;-1.20;54.06;151064.44;5064677;28;20551;-77
2022/03/08 02:28:52;;;;;;;14.10;8.90;;;;;;;-1.25;54.01;151054.22;5050937;28;20948;-77
2022/03/08 02:31:27;;;;;;;10.83;8.73;;;;;;;-1.27;54.62;151049.06;5064966;28;20448;-77
2022/03/08 02:34:04;;;;;;;15.20;10.10;;;;;;;-1.32;55.15;151036.22;5063945;28;20456;-77
2022/03/08 02:36:41;;;;;;;13.30;9.17;;;;;;;-1.35;54.41;151028.53;5050378;28;20511;-76
2022/03/08 02:39:17;;;;;;;15.17;9.30;;;;;;;-1.33;55.15;151032.41;5065860;28;20467;-77
2022/03/08 02:41:52;;;;;;;13.20;9.00;;;;;;;-1.34;55.08;151029.84;5063689;28;20453;-77
2022/03/08 02:44:29;;;;;;;12.20;8.37;;;;;;;-1.36;55.53;151026.00;5063933;28;20430;-77
2022/03/08 02:47:06;;;;;;;14.30;9.40;;;;;;;-1.41;55.76;151013.19;5064670;28;20455;-77
2022/03/08 02:49:41;;;;;;;13.13;10.17;;;;;;;-1.41;55.24;151011.91;5055629;28;20505;-77
2022/03/08 02:52:18;;;;;;;12.73;9.60;;;;;;;-1.38;55.59;151020.84;5032250;28;20459;-77
2022/03/08 02:54:53;;;;;;;15.07;9.00;;;;;;;-1.44;55.89;151004.22;5025749;28;20486;-77
2022/03/08 02:57:29;;;;;;;14.63;9.23;;;;;;;-1.51;55.88;150987.53;5020769;28;20447;-77
2022/03/08 03:00:07;;;;;;;12.80;8.67;;;;;;;-1.52;56.06;150985.00;5048410;28;20460;-77
2022/03/08 03:02:43;;;;;;;13.87;9.17;;;;;;;-1.48;56.09;150995.22;5031776;28;20541;-77
2022/03/08 03:05:18;;;;;;;13.47;9.07;;;;;;;-1.46;55.76;150999.09;5034949;28;20440;-77
2022/03/08 03:07:57;;;;;;;13.20;9.73;;;;;;;-1.48;55.65;150993.94;5046412;28;20459;-76
2022/03/08 03:10:33;;;;;;;13.37;8.23;;;;;;;-1.46;55.21;151000.38;5043355;28;21143;-76
2022/03/08 03:13:08;;;;;;;12.47;8.67;;;;;;;-1.41;54.99;151013.19;5022729;28;20466;-76
2022/03/08 03:15:43;;;;;;;13.37;9.10;;;;;;;-1.35;54.72;151028.53;5022962;28;20499;-76
2022/03/08 03:18:19;;;;;;;9.90;7.90;;;;;;;-1.33;54.18;151032.41;5046629;28;20433;-76
2022/03/08 03:20:54;;;;;;;12.60;8.70;;;;;;;-1.41;54.53;151013.19;5046054;28;20474;-77
2022/03/08 03:23:32;;;;;;;12.40;7.40;;;;;;;-1.39;54.77;151018.31;5043560;28;20435;-77
2022/03/08 03:26:08;;;;;;;10.40;7.30;;;;;;;-1.42;54.88;151010.63;5042505;28;20441;-76
2022/03/08 03:28:43;;;;;;;11.40;8.53;;;;;;;-1.45;54.42;151001.63;5025411;28;20465;-76
2022/03/08 03:31:19;;;;;;;14.27;8.50;;;;;;;-1.34;53.72;151031.13;5030853;28;20453;-76
2022/03/08 03:33:55;;;;;;;11.13;7.90;;;;;;;-1.33;53.65;151033.69;5029739;28;20487;-75
2022/03/08 03:36:30;;;;;;;12.27;8.10;;;;;;;-1.36;54.11;151024.72;5047039;28;20451;-76
2022/03/08 03:39:07;;;;;;;15.10;8.10;;;;;;;-1.37;54.11;151023.44;5031113;28;20481;-76
2022/03/08 03:41:43;;;;;;;10.73;7.67;;;;;;;-1.38;53.98;151019.59;5044760;28;20447;-76
2022/03/08 03:44:20;;;;;;;9.50;7.60;;;;;;;-1.42;54.22;151009.31;5013618;28;20470;-75
2022/03/08 03:46:56;;;;;;;11.37;7.33;;;;;;;-1.46;54.68;151000.38;5040519;28;20440;-76
2022/03/08 03:49:31;;;;;;;11.10;7.23;;;;;;;-1.48;55.03;150993.94;5053213;28;20467;-76
2022/03/08 03:52:07;;;;;;;9.50;6.37;;;;;;;-1.48;53.82;150993.94;5044648;28;20456;-76
2022/03/08 03:54:44;;;;;;;8.83;7.20;;;;;;;-1.45;54.42;151001.63;5061166;28;20530;-76
2022/03/08 03:57:20;;;;;;;10.87;7.30;;;;;;;-1.44;54.24;151005.50;5068795;28;20454;-75
2022/03/08 03:59:55;;;;;;;10.80;6.90;;;;;;;-1.37;53.55;151023.44;5053036;28;20469;-75
2022/03/08 04:02:31;;;;;;;13.23;8.40;;;;;;;-1.33;53.98;151033.69;5052184;28;20457;-76
2022/03/08 04:05:08;;;;;;;14.13;8.70;;;;;;;-1.29;53.75;151043.94;5051452;28;20461;-76
2022/03/08 04:07:43;;;;;;;12.87;8.50;;;;;;;-1.36;54.30;151026.00;5061797;28;20451;-75
2022/03/08 04:10:20;;;;;;;12.13;7.53;;;;;;;-1.33;54.58;151033.69;5061092;28;20449;-76
2022/03/08 04:12:56;;;;;;;14.70;8.90;;;;;;;-1.37;54.80;151022.13;5052512;28;20456;-76
2022/03/08 04:15:31;;;;;;;10.30;6.93;;;;;;;-1.39;54.85;151018.31;5064755;28;20455;-76
2022/03/08 04:18:07;;;;;;;10.77;7.83;;;;;;;-1.44;54.77;151005.50;5068293;28;20949;-76
2022/03/08 04:20:43;;;;;;;10.83;7.47;;;;;;;-1.47;55.05;150997.81;5065563;28;21005;-75
2022/03/08 04:23:19;;;;;;;10.80;7.50;;;;;;;-1.54;55.34;150978.59;5064905;28;20449;-76
2022/03/08 04:25:56;;;;;;;11.00;7.10;;;;;;;-1.48;54.91;150993.94;5051915;28;20461;-76
2022/03/08 04:28:32;;;;;;;11.77;8.47;;;;;;;-1.48;54.45;150995.22;5063515;28;20457;-76
2022/03/08 04:31:07;;;;;;;10.60;7.93;;;;;;;-1.49;54.32;150992.69;5046716;28;20450;-76
2022/03/08 04:33:45;;;;;;;11.13;7.77;;;;;;;-1.50;54.64;150990.09;5051820;28;20433;-75
2022/03/08 04:36:21;;;;;;;9.00;6.97;;;;;;;-1.51;55.02;150987.53;5052832;28;20442;-77
2022/03/08 04:38:57;;;;;;;9.63;6.13;;;;;;;-1.48;54.49;150993.94;5052358;28;20940;-77
2022/03/08 04:41:37;;;;;;;9.90;7.43;;;;;;;-1.48;54.42;150993.94;5063171;28;20466;-77
2022/03/08 04:44:12;;;;;;;10.57;6.90;;;;;;;-1.44;54.00;151004.22;5058958;28;20438;-77
2022/03/08 04:46:48;;;;;;;9.57;7.10;;;;;;;-1.47;53.95;150997.81;5065301;28;20536;-77
2022/03/08 04:49:25;;;;;;;8.97;6.33;;;;;;;-1.43;54.08;151008.03;5046664;28;20555;-77
2022/03/08 04:52:00;;;;;;;10.20;5.50;;;;;;;-1.48;54.59;150993.94;5067578;28;20453;-77
2022/03/08 04:54:36;;;;;;;10.40;6.27;;;;;;;-1.49;55.12;150991.41;5045974;28;20441;-77
2022/03/08 04:57:13;;;;;;;9.97;6.77;;;;;;;-1.42;54.19;151010.63;5062783;28;20443;-77
2022/03/08 04:59:48;;;;;;;9.47;6.40;;;;;;;-1.50;54.83;150990.09;5065958;28;20468;-77
2022/03/08 05:02:24;;;;;;;10.40;7.10;;;;;;;-1.39;54.25;151018.31;5052182;28;20481;-77
2022/03/08 05:04:59;;;;;;;10.30;6.97;;;;;;;-1.43;54.14;151008.03;5048414;28;21254;-76
2022/03/08 05:07:35;;;;;;;9.97;6.83;;;;;;;-1.45;54.60;151001.63;5044703;28;20450;-77
2022/03/08 05:10:12;;;;;;;9.03;5.83;;;;;;;-1.33;54.13;151032.41;5066289;28;20473;-76
2022/03/08 05:12:50;;;;;;;9.97;6.20;;;;;;;-1.32;53.87;151036.22;5061495;28;20449;-76
2022/03/08 05:15:25;;;;;;;9.97;7.20;;;;;;;-1.37;54.68;151023.44;5047926;28;21026;-76
2022/03/08 05:18:01;;;;;;;9.60;6.00;;;;;;;-1.44;54.61;151005.50;5048193;28;20448;-76
2022/03/08 05:20:37;;;;;;;7.43;5.50;;;;;;;-1.41;54.20;151011.91;5066342;28;20462;-76
2022/03/08 05:23:12;;;;;;;10.03;5.90;;;;;;;-1.43;54.40;151006.78;5063031;28;20457;-76
2022/03/08 05:25:48;;;;;;;10.00;6.00;;;;;;;-1.39;54.13;151018.31;5059788;28;20460;-76
2022/03/08 05:28:25;;;;;;;10.77;7.37;;;;;;;-1.29;53.93;151042.66;5064660;28;20445;-76
2022/03/08 05:31:01;;;;;;;10.70;6.43;;;;;;;-1.35;54.45;151028.53;5049733;28;20451;-76
2022/03/08 05:33:37;;;;;;;11.13;6.17;;;;;;;-1.39;54.62;151018.31;5064845;28;20434;-76
2022/03/08 05:36:13;;;;;;;8.30;6.43;;;;;;;-1.44;55.23;151004.22;5062682;28;20459;-76
2022/03/08 05:38:49;;;;;;;8.87;6.60;;;;;;;-1.38;54.40;151019.59;5048394;28;20461;-76
2022/03/08 05:41:25;;;;;;;9.77;6.60;;;;;;;-1.34;54.86;151029.84;5061860;28;20489;-76
2022/03/08 05:44:02;;;;;;;6.87;5.10;;;;;;;-1.29;55.31;151043.94;5063828;28;20865;-76
2022/03/08 05:46:38;;;;;;;10.30;5.80;;;;;;;-1.47;55.63;150997.81;5067849;28;20457;-76
2022/03/08 05:49:13;;;;;;;10.80;6.30;;;;;;;-1.42;55.25;151009.31;5065346;28;20534;-76
2022/03/08 05:51:49;;;;;;;9.63;6.10;;;;;;;-1.41;55.49;151011.91;5052150;28;20865;-76
2022/03/08 05:54:25;;;;;;;8.47;5.50;;;;;;;-1.35;55.95;151028.53;5050421;28;20827;-76
2022/03/08 05:57:01;;;;;;;9.10;6.30;;;;;;;-1.39;56.25;151018.31;5065306;28;20462;-76
2022/03/08 05:59:37;;;;;;;7.20;5.63;;;;;;;-1.29;55.94;151043.94;5047161;28;20553;-76
2022/03/08 06:02:14;;;;;;;15.60;6.40;;;;;;;-1.18;55.20;151069.56;5061148;28;20446;-75
2022/03/08 06:04:52;;;;;;;6.27;5.50;;;;;;;-1.29;55.99;151042.66;5045350;28;20454;-76
2022/03/08 06:07:29;;;;;;;8.47;6.97;;;;;;;-1.29;55.57;151042.66;5066281;28;20813;-76
2022/03/08 06:10:08;;;;;;;7.70;6.67;;;;;;;-1.22;55.88;151060.63;5068068;28;20844;-76
2022/03/08 06:12:44;;;;;;;8.50;6.33;;;;;;;-1.17;55.69;151072.13;5048208;28;20777;-76
2022/03/08 06:15:26;;;;;;;10.33;6.27;;;;;;;-1.22;56.03;151061.88;5049621;28;20837;-77
2022/03/08 06:18:10;;;;;;;6.63;5.53;;;;;;;-1.16;55.66;151074.66;5061707;28;20438;-78
2022/03/08 06:20:49;;;;;;;9.17;6.73;;;;;;;-1.18;56.23;151069.56;5061992;28;20971;-76
2022/03/08 06:23:26;;;;;;;9.73;6.50;;;;;;;-1.07;56.08;151097.78;5046269;28;21028;-76
2022/03/08 06:26:03;;;;;;;8.83;6.83;;;;;;;-0.97;55.76;151123.41;5064824;28;20443;-76
2022/03/08 06:28:39;;;;;;;10.37;6.60;;;;;;;-0.87;55.69;151149.03;5063456;28;20442;-76
2022/03/08 06:31:16;;;;;;;9.33;7.10;;;;;;;-0.77;55.26;151175.97;5064038;28;20541;-76
2022/03/08 06:33:52;;;;;;;9.03;6.60;;;;;;;-0.61;54.35;151215.75;5064644;28;20973;-77
2022/03/08 06:36:27;;;;;;;9.90;7.40;;;;;;;-0.49;54.27;151246.53;5062803;28;20442;-76
2022/03/08 06:39:03;;;;;;;14.03;7.27;;;;;;;-0.37;54.46;151276.03;5048935;28;20452;-76
2022/03/08 06:41:40;;;;;;;12.47;6.73;;;;;;;-0.19;53.78;151323.50;5048010;28;20985;-76
2022/03/08 06:44:18;;;;;;;8.43;6.30;;;;;;;-0.03;52.97;151364.53;5063051;28;20445;-76
2022/03/08 06:46:55;;;;;;;9.50;6.73;;;;;;;0.10;52.82;151395.34;5063061;28;20449;-76
2022/03/08 06:49:31;;;;;;;9.43;6.20;;;;;;;0.24;52.68;151431.28;5062569;28;20505;-76
2022/03/08 06:52:08;;;;;;;8.33;6.30;;;;;;;0.40;52.47;151472.31;5042311;28;20492;-78
2022/03/08 06:54:43;;;;;;;8.70;6.47;;;;;;;0.60;51.78;151523.72;5049777;28;20445;-76
2022/03/08 06:57:19;;;;;;;9.17;6.83;;;;;;;0.66;51.98;151539.13;5041586;28;20468;-76
2022/03/08 06:59:54;;;;;;;10.43;7.20;;;;;;;0.72;50.71;151553.22;5048801;28;20517;-76
2022/03/08 07:02:31;;;;;;;8.47;6.43;;;;;;;0.82;51.90;151580.16;5063068;28;20468;-77
2022/03/08 07:05:08;;;;;;;9.03;6.40;;;;;;;0.97;51.15;151618.72;5050576;28;20470;-76
2022/03/08 07:07:44;;;;;;;12.03;7.30;;;;;;;1.08;50.79;151647.00;5047511;28;20468;-77
2022/03/08 07:10:20;;;;;;;8.57;6.80;;;;;;;1.13;51.56;151659.84;5063408;28;20919;-77
2022/03/08 07:12:56;;;;;;;9.50;6.67;;;;;;;1.33;51.54;151708.63;5065145;28;20443;-76
2022/03/08 07:15:32;;;;;;;9.70;7.47;;;;;;;1.46;51.09;151742.00;5060598;28;20537;-76
2022/03/08 07:18:09;;;;;;;8.33;6.07;;;;;;;1.54;50.94;151762.56;5059603;28;20444;-76
2022/03/08 07:20:45;;;;;;;8.87;7.40;;;;;;;1.53;51.31;151761.34;5062403;28;21125;-76
2022/03/08 07:23:21;;;;;;;10.23;7.40;;;;;;;1.46;51.69;151743.31;5061002;28;20674;-76
2022/03/08 07:25:56;;;;;;;6.50;4.27;;;;;;;1.64;51.58;151789.56;5067530;28;20487;-76
2022/03/08 07:28:32;;;;;;;9.50;7.43;;;;;;;1.48;51.12;151747.19;5062978;28;20428;-76
2022/03/08 07:31:07;;;;;;;8.00;6.40;;;;;;;1.53;51.08;151761.34;5064452;28;20448;-76
2022/03/08 07:33:44;;;;;;;10.47;6.83;;;;;;;1.79;51.25;151828.16;5067341;28;20457;-76
2022/03/08 07:36:20;;;;;;;9.33;6.70;;;;;;;2.18;50.72;151927.13;5067765;28;20449;-76
2022/03/08 07:38:56;;;;;;;8.27;6.33;;;;;;;2.27;50.33;151950.28;5064125;28;20541;-78
2022/03/08 07:41:31;;;;;;;11.20;7.37;;;;;;;2.48;50.06;152003.00;5067130;28;20496;-77
2022/03/08 07:44:07;;;;;;;10.93;8.23;;;;;;;2.48;49.79;152003.00;5069427;28;20456;-77
2022/03/08 07:46:42;;;;;;;10.17;7.23;;;;;;;2.68;49.32;152054.41;5047770;28;20454;-77
2022/03/08 07:49:19;;;;;;;11.07;7.53;;;;;;;2.67;49.73;152050.56;5061688;28;20874;-76
2022/03/08 07:51:55;;;;;;;9.43;7.07;;;;;;;2.91;49.19;152112.34;5063678;28;21023;-76
2022/03/08 07:54:30;;;;;;;10.80;8.50;;;;;;;3.12;49.13;152166.38;5069300;28;20443;-77
2022/03/08 07:57:06;;;;;;;10.73;7.47;;;;;;;3.18;48.60;152180.53;5051822;28;20451;-81
2022/03/08 07:59:42;;;;;;;11.70;7.77;;;;;;;3.04;48.88;152145.78;5065587;28;20453;-77
2022/03/08 08:02:18;;;;;;;11.37;7.30;;;;;;;3.22;49.03;152192.09;5084750;28;20547;-77
2022/03/08 08:04:56;;;;;;;13.80;10.27;;;;;;;3.35;48.52;152224.25;5052316;28;20429;-78
2022/03/08 08:07:31;;;;;;;10.47;7.60;;;;;;;3.67;47.54;152307.94;5070215;28;20213;-78
2022/03/08 08:10:07;;;;;;;13.47;8.50;;;;;;;3.66;47.73;152305.34;5063108;28;20516;-78
2022/03/08 08:12:43;;;;;;;11.57;8.70;;;;;;;3.66;47.46;152304.06;5047128;28;20568;-78
2022/03/08 08:15:19;;;;;;;12.47;7.90;;;;;;;3.91;47.90;152368.47;5064219;28;20441;-79
2022/03/08 08:17:54;;;;;;;9.40;7.50;;;;;;;3.92;47.28;152369.75;5049798;28;20484;-78
2022/03/08 08:20:32;;;;;;;11.57;8.47;;;;;;;4.06;47.61;152405.78;5067422;28;20500;-78
2022/03/08 08:23:07;;;;;;;11.13;8.73;;;;;;;3.78;48.28;152333.69;5068742;28;20499;-78
2022/03/08 08:25:43;;;;;;;9.60;7.93;;;;;;;3.87;47.73;152356.81;5065708;28;20496;-78
2022/03/08 08:28:19;;;;;;;8.27;5.73;;;;;;;4.18;46.47;152436.72;5068894;28;20797;-78
2022/03/08 08:30:54;;;;;;;11.47;8.23;;;;;;;3.98;47.04;152386.47;5067815;28;20453;-78
2022/03/08 08:33:30;;;;;;;11.23;8.53;;;;;;;3.94;47.59;152374.88;5051303;28;20461;-78
2022/03/08 08:36:07;;;;;;;12.43;9.07;;;;;;;4.13;47.75;152423.84;5065739;28;20456;-78
2022/03/08 08:38:45;;;;;;;16.70;8.20;;;;;;;4.37;47.41;152485.63;5065803;28;20442;-78
2022/03/08 08:41:21;;;;;;;10.40;7.63;;;;;;;4.43;47.05;152499.78;5068945;28;20477;-78
2022/03/08 08:43:57;;;;;;;9.17;7.90;;;;;;;4.32;46.73;152472.75;5068647;28;20446;-78
2022/03/08 08:46:32;;;;;;;13.40;9.00;;;;;;;4.72;46.64;152575.81;5044533;28;20815;-78
2022/03/08 08:49:08;;;;;;;10.97;8.03;;;;;;;4.61;46.11;152547.47;5065615;28;21023;-78
2022/03/08 08:51:45;;;;;;;7.30;6.53;;;;;;;4.09;46.12;152414.81;5064161;28;20485;-78
2022/03/08 08:54:21;;;;;;;8.63;6.80;;;;;;;3.97;46.87;152382.63;5066117;28;20437;-78
2022/03/08 08:56:57;;;;;;;9.50;7.90;;;;;;;4.07;46.75;152408.38;5068475;28;20453;-78
2022/03/08 08:59:32;;;;;;;8.60;7.07;;;;;;;4.38;46.83;152488.22;5067161;28;20440;-78
2022/03/08 09:02:09;;;;;;;12.90;8.27;;;;;;;4.39;47.22;152490.81;5068590;28;20499;-78
2022/03/08 09:04:44;;;;;;;7.53;6.70;;;;;;;4.38;46.50;152486.91;5068620;28;20442;-78
2022/03/08 09:07:21;;;;;;;10.57;7.30;;;;;;;4.22;47.61;152447.00;5064134;28;20493;-79
2022/03/08 09:09:56;;;;;;;9.03;6.70;;;;;;;4.00;45.58;152390.31;5051644;28;20466;-79
2022/03/08 09:12:32;;;;;;;7.63;6.30;;;;;;;4.11;47.50;152418.66;5048940;28;20810;-78
2022/03/08 09:15:08;;;;;;;11.90;6.80;;;;;;;4.16;46.64;152432.81;5051937;28;20542;-79
2022/03/08 09:17:44;;;;;;;10.50;6.67;;;;;;;4.42;46.10;152498.50;5050408;28;20457;-78
2022/03/08 09:20:19;;;;;;;8.03;6.20;;;;;;;4.44;46.72;152503.69;5064049;28;20454;-78
2022/03/08 09:22:57;;;;;;;9.60;6.57;;;;;;;4.36;46.40;152483.06;5063606;28;20484;-78
2022/03/08 09:25:33;;;;;;;7.17;5.70;;;;;;;4.69;45.97;152568.06;5066888;28;20441;-78
2022/03/08 09:28:08;;;;;;;7.57;5.60;;;;;;;4.44;46.13;152503.69;5062111;28;20491;-78
2022/03/08 09:30:46;;;;;;;10.10;6.53;;;;;;;4.14;46.79;152427.69;5044973;28;20512;-78
2022/03/08 09:33:22;;;;;;;8.83;7.23;;;;;;;4.43;46.60;152499.78;5065100;28;20457;-78
2022/03/08 09:35:58;;;;;;;9.00;7.10;;;;;;;4.73;46.00;152577.13;5066036;28;20556;-78
2022/03/08 09:38:34;;;;;;;9.50;6.27;;;;;;;4.38;45.17;152486.91;5067094;28;21016;-78
2022/03/08 09:41:11;;;;;;;7.70;6.40;;;;;;;4.36;45.23;152483.06;5064936;28;20473;-78
2022/03/08 09:43:46;;;;;;;8.77;6.37;;;;;;;4.39;45.59;152490.81;5066120;28;20485;-78
2022/03/08 09:46:22;;;;;;;8.90;7.37;;;;;;;4.62;45.57;152548.75;5048233;28;20472;-78
2022/03/08 09:48:58;;;;;;;10.53;7.47;;;;;;;4.43;45.09;152501.09;5049862;28;20576;-78
2022/03/08 09:51:36;;;;;;;7.70;5.80;;;;;;;4.35;45.00;152480.47;5045115;28;20453;-78
2022/03/08 09:54:13;;;;;;;10.20;6.83;;;;;;;4.44;46.05;152503.69;5063787;28;20532;-78
2022/03/08 09:56:49;;;;;;;24.13;8.33;;;;;;;4.20;44.69;152441.84;5065496;28;20839;-78
2022/03/08 09:59:29;;;;;;;10.27;7.00;;;;;;;4.41;45.24;152494.66;5066544;28;20470;-78
2022/03/08 10:02:05;;;;;;;8.43;6.37;;;;;;;4.58;44.40;152538.47;5048047;28;20480;-78
2022/03/08 10:04:40;;;;;;;9.30;6.53;;;;;;;4.51;44.18;152521.69;5066488;28;20537;-79
2022/03/08 10:07:16;;;;;;;5.23;4.37;;;;;;;4.42;42.72;152498.50;5075928;28;20481;-78
2022/03/08 10:09:59;;;;;;;4.93;3.93;;;;;;;4.40;43.69;152493.34;5063243;28;20452;-79
2022/03/08 10:12:35;;;;;;;9.30;6.60;;;;;;;4.40;43.79;152492.06;5062237;28;20490;-78
2022/03/08 10:15:18;;;;;;;6.30;4.77;;;;;;;4.56;43.04;152534.59;5061266;28;20446;-77
2022/03/08 10:17:54;;;;;;;6.30;5.20;;;;;;;4.81;42.83;152599.03;5045812;28;20438;-78
2022/03/08 10:20:30;;;;;;;8.70;6.37;;;;;;;4.85;42.28;152609.31;5065765;28;20437;-78
2022/03/08 10:23:13;;;;;;;8.47;5.57;;;;;;;4.62;41.85;152550.06;5079449;28;20442;-78
2022/03/08 10:25:50;;;;;;;18.20;5.90;;;;;;;4.73;42.85;152578.41;5063092;28;20945;-78
2022/03/08 10:28:26;;;;;;;9.40;6.90;;;;;;;4.76;42.64;152584.84;5055898;28;20896;-78
2022/03/08 10:31:01;;;;;;;7.43;5.23;;;;;;;4.61;41.05;152547.47;5049008;28;20955;-78
2022/03/08 10:33:37;;;;;;;5.63;4.67;;;;;;;4.55;41.66;152532.03;5061091;28;20478;-78
2022/03/08 10:36:16;;;;;;;6.93;5.80;;;;;;;4.67;42.88;152561.63;5062807;28;20872;-78
2022/03/08 10:39:06;;;;;;;7.17;6.07;;;;;;;4.98;42.21;152640.28;5061783;28;20449;-78
2022/03/08 10:41:53;;;;;;;8.70;6.50;;;;;;;4.95;41.75;152632.53;5063697;28;20463;-78
2022/03/08 10:44:37;;;;;;;7.30;5.00;;;;;;;4.96;40.31;152635.06;5064439;28;20442;-79
2022/03/08 10:47:14;;;;;;;8.07;7.20;;;;;;;5.05;41.64;152658.31;5051421;28;20875;-78
2022/03/08 10:49:52;;;;;;;13.10;9.00;;;;;;;5.07;41.02;152663.44;5042607;28;20842;-78
2022/03/08 10:52:29;;;;;;;9.83;5.47;;;;;;;5.28;40.84;152718.88;5059345;28;20529;-78
2022/03/08 10:55:10;;;;;;;6.73;5.70;;;;;;;5.31;39.66;152726.63;5062421;28;20447;-78
2022/03/08 10:57:49;;;;;;;5.77;4.50;;;;;;;5.41;39.42;152751.09;5078825;28;20493;-79
2022/03/08 11:00:26;;;;;;;3.87;3.27;;;;;;;5.29;38.33;152721.47;5064409;28;20773;-79
2022/03/08 11:03:03;;;;;;;8.10;5.13;;;;;;;5.16;39.12;152686.66;5063786;28;20476;-78
2022/03/08 11:05:40;;;;;;;9.10;6.90;;;;;;;5.23;38.95;152704.69;5057950;28;20567;-78
2022/03/08 11:08:17;;;;;;;6.40;5.57;;;;;;;5.15;39.47;152685.38;5045732;28;20447;-78
2022/03/08 11:10:52;;;;;;;8.63;6.20;;;;;;;5.04;39.32;152657.00;5047480;28;20923;-78
2022/03/08 11:13:29;;;;;;;5.90;5.30;;;;;;;5.24;38.93;152707.28;5059102;28;20481;-79
2022/03/08 11:16:06;;;;;;;8.00;5.80;;;;;;;5.03;39.37;152653.16;5068460;28;20446;-79
2022/03/08 11:18:45;;;;;;;7.53;5.37;;;;;;;5.05;40.41;152659.59;5063088;28;20449;-79
2022/03/08 11:21:23;;;;;;;5.97;5.20;;;;;;;5.32;39.27;152727.91;5066610;28;20553;-79
2022/03/08 11:23:59;;;;;;;7.70;4.90;;;;;;;5.35;38.72;152735.63;5040691;28;21034;-78
2022/03/08 11:26:34;;;;;;;7.60;5.43;;;;;;;5.60;38.47;152798.81;5063253;28;20917;-79
2022/03/08 11:29:11;;;;;;;7.03;6.00;;;;;;;5.43;38.76;152756.25;5062007;28;20446;-78
2022/03/08 11:31:47;;;;;;;6.27;5.20;;;;;;;5.19;38.52;152694.41;5061236;28;20535;-79
2022/03/08 11:34:27;;;;;;;6.57;5.07;;;;;;;5.13;39.16;152680.22;5043524;28;20537;-78
2022/03/08 11:37:05;;;;;;;7.93;5.50;;;;;;;5.38;39.73;152743.34;5041652;28;20524;-78
2022/03/08 11:39:43;;;;;;;7.50;5.87;;;;;;;5.38;39.17;152744.66;5063054;28;20441;-78
2022/03/08 11:42:27;;;;;;;7.70;6.10;;;;;;;5.32;38.70;152729.16;5049672;28;20572;-78
2022/03/08 11:45:06;;;;;;;9.60;6.20;;;;;;;5.36;38.94;152739.50;5043431;28;20447;-78
2022/03/08 11:47:43;;;;;;;6.07;5.40;;;;;;;5.51;38.37;152776.88;5060406;28;20824;-78
2022/03/08 11:50:24;;;;;;;5.70;4.97;;;;;;;5.48;38.73;152769.19;5066912;28;20470;-78
2022/03/08 11:53:11;;;;;;;7.97;6.17;;;;;;;5.60;38.03;152798.81;5064907;28;20979;-78
2022/03/08 11:55:51;;;;;;;8.27;6.03;;;;;;;5.62;36.90;152805.25;5061729;28;20536;-78
2022/03/08 11:58:42;;;;;;;6.50;5.77;;;;;;;5.66;37.16;152815.59;5063097;28;20438;-78
2022/03/08 12:01:28;;;;;;;7.80;5.70;;;;;;;5.61;37.85;152802.72;5063094;28;20462;-78
2022/03/08 12:04:07;;;;;;;8.97;6.20;;;;;;;5.86;37.20;152867.22;5063086;28;20438;-78
2022/03/08 12:06:49;;;;;;;8.17;5.60;;;;;;;5.76;37.58;152841.38;5062011;28;20453;-78